createdAt,value
2022-09-06T00:01:18.118Z,2.10
2022-09-06T00:03:46.493Z,2.38
2022-09-06T00:06:18.565Z,2.05
2022-09-06T00:08:48.553Z,2.17
2022-09-06T00:11:18.325Z,2.33
2022-09-06T00:13:46.802Z,2.25
2022-09-06T00:16:28.393Z,2.35
2022-09-06T00:18:58.503Z,2.40
2022-09-06T00:21:30.661Z,2.60
2022-09-06T00:23:58.933Z,2.88
2022-09-06T00:26:27.703Z,2.33
2022-09-06T00:28:55.703Z,2.30
2022-09-06T00:31:26.775Z,2.20
2022-09-06T00:33:55.158Z,2.25
2022-09-06T00:36:24.223Z,2.30
2022-09-06T00:38:52.214Z,2.22
2022-09-06T00:41:20.290Z,2.20
2022-09-06T00:43:48.319Z,2.20
2022-09-06T00:46:20.826Z,2.10
2022-09-06T00:48:54.542Z,2.15
2022-09-06T00:51:25.987Z,2.17
2022-09-06T00:53:54.563Z,2.30
2022-09-06T00:56:23.986Z,2.30
2022-09-06T00:58:52.143Z,2.50
2022-09-06T01:01:20.267Z,2.00
2022-09-06T01:03:48.458Z,1.90
2022-09-06T01:07:10.005Z,2.13
2022-09-06T01:09:47.100Z,2.30
2022-09-06T01:13:03.435Z,2.20
2022-09-06T01:15:45.776Z,1.70
2022-09-06T01:18:50.340Z,1.80
2022-09-06T01:21:20.878Z,2.00
2022-09-06T01:24:17.050Z,1.90
2022-09-06T01:27:42.213Z,2.88
2022-09-06T01:30:14.294Z,2.30
2022-09-06T01:32:54.988Z,2.45
2022-09-06T01:36:02.544Z,2.47
2022-09-06T01:38:30.992Z,2.30
2022-09-06T01:40:58.886Z,2.33
2022-09-06T01:43:36.900Z,2.60
2022-09-06T01:46:13.103Z,2.63
2022-09-06T01:49:02.559Z,2.65
2022-09-06T01:52:11.887Z,2.60
2022-09-06T01:54:54.604Z,3.00
2022-09-06T01:58:14.402Z,2.72
2022-09-06T02:00:57.734Z,2.85
2022-09-06T02:03:35.790Z,2.90
2022-09-06T02:06:14.325Z,2.70
2022-09-06T02:08:48.419Z,2.65
2022-09-06T02:11:16.724Z,2.80
2022-09-06T02:14:03.032Z,2.78
2022-09-06T02:16:34.626Z,2.90
2022-09-06T02:19:29.862Z,2.65
2022-09-06T02:21:58.298Z,2.72
2022-09-06T02:24:33.054Z,2.58
2022-09-06T02:27:02.043Z,2.70
2022-09-06T02:29:30.732Z,2.55
2022-09-06T02:32:07.420Z,2.88
2022-09-06T02:34:40.124Z,2.63
2022-09-06T02:37:08.936Z,3.00
2022-09-06T02:39:39.471Z,2.65
2022-09-06T02:42:11.310Z,2.65
2022-09-06T02:44:39.333Z,2.53
2022-09-06T02:47:07.394Z,2.78
2022-09-06T02:49:36.259Z,9.63
2022-09-06T02:52:05.308Z,7.10
2022-09-06T02:54:33.259Z,3.30
2022-09-06T02:57:01.234Z,3.15
2022-09-06T02:59:29.220Z,2.83
2022-09-06T03:01:57.176Z,3.28
2022-09-06T03:04:25.297Z,3.35
2022-09-06T03:06:53.073Z,3.42
2022-09-06T03:09:21.088Z,3.72
2022-09-06T03:11:49.022Z,4.10
2022-09-06T03:14:17.200Z,7.72
2022-09-06T03:16:45.129Z,6.22
2022-09-06T03:19:13.193Z,5.20
2022-09-06T03:21:41.328Z,4.75
2022-09-06T03:24:09.337Z,4.90
2022-09-06T03:26:37.286Z,4.65
2022-09-06T03:29:06.039Z,4.90
2022-09-06T03:31:34.861Z,4.88
2022-09-06T03:34:02.737Z,4.05
2022-09-06T03:36:30.708Z,4.70
2022-09-06T03:38:59.071Z,4.28
2022-09-06T03:41:26.896Z,4.20
2022-09-06T03:43:55.044Z,3.90
2022-09-06T03:46:23.161Z,3.90
2022-09-06T03:48:51.075Z,4.00
2022-09-06T03:51:21.134Z,4.03
2022-09-06T03:53:49.229Z,4.43
2022-09-06T03:56:17.405Z,3.97
2022-09-06T03:58:45.243Z,4.40
2022-09-06T04:01:13.656Z,4.03
2022-09-06T04:03:41.747Z,4.00
2022-09-06T04:06:10.199Z,4.35
2022-09-06T04:08:39.352Z,4.13
2022-09-06T04:11:07.677Z,3.90
2022-09-06T04:13:36.661Z,3.97
2022-09-06T04:16:05.861Z,4.05
2022-09-06T04:18:34.296Z,4.85
2022-09-06T04:21:02.850Z,3.92
2022-09-06T04:23:31.029Z,4.20
2022-09-06T04:25:59.803Z,3.95
2022-09-06T04:28:28.332Z,3.85
2022-09-06T04:31:04.059Z,3.83
2022-09-06T04:33:34.938Z,3.85
2022-09-06T04:36:06.212Z,3.72
2022-09-06T04:38:40.844Z,3.97
2022-09-06T04:41:11.806Z,3.88
2022-09-06T04:43:39.816Z,4.22
2022-09-06T04:46:25.189Z,4.10
2022-09-06T04:48:56.880Z,3.70
2022-09-06T04:51:25.721Z,4.07
2022-09-06T04:53:53.921Z,3.80
2022-09-06T04:56:25.411Z,3.78
2022-09-06T04:58:55.344Z,4.00
2022-09-06T05:01:23.592Z,3.53
2022-09-06T05:03:56.602Z,3.78
2022-09-06T05:06:33.059Z,3.78
2022-09-06T05:09:14.844Z,3.50
2022-09-06T05:11:55.895Z,3.85
2022-09-06T05:14:30.913Z,4.10
2022-09-06T05:16:58.926Z,3.72
2022-09-06T05:19:27.009Z,4.20
2022-09-06T05:21:56.551Z,3.72
2022-09-06T05:24:24.678Z,4.55
2022-09-06T05:26:52.589Z,4.15
2022-09-06T05:29:22.355Z,4.30
2022-09-06T05:31:50.582Z,4.22
2022-09-06T05:34:18.962Z,4.50
2022-09-06T05:36:46.926Z,4.85
2022-09-06T05:39:15.175Z,4.60
2022-09-06T05:41:43.347Z,4.32
2022-09-06T05:44:11.341Z,4.78
2022-09-06T05:46:46.647Z,4.65
2022-09-06T05:49:14.770Z,4.07
2022-09-06T05:51:43.330Z,4.05
2022-09-06T05:54:12.732Z,3.95
2022-09-06T05:56:40.698Z,4.70
2022-09-06T05:59:08.561Z,4.50
2022-09-06T06:01:36.700Z,5.05
2022-09-06T06:04:05.891Z,4.63
2022-09-06T06:06:35.043Z,4.40
2022-09-06T06:09:03.675Z,4.63
2022-09-06T06:11:32.136Z,4.75
2022-09-06T06:14:00.228Z,4.78
2022-09-06T06:16:28.170Z,4.55
2022-09-06T06:18:56.513Z,5.00
2022-09-06T06:21:27.844Z,4.82
2022-09-06T06:26:33.576Z,4.47
2022-09-06T06:29:02.467Z,5.10
2022-09-06T06:31:32.908Z,4.85
2022-09-06T06:34:03.942Z,5.40
2022-09-06T06:36:34.884Z,5.25
2022-09-06T06:39:06.535Z,5.45
2022-09-06T06:41:34.657Z,5.25
2022-09-06T06:44:05.639Z,5.57
2022-09-06T06:46:37.203Z,5.07
2022-09-06T06:49:05.922Z,5.50
2022-09-06T06:51:37.298Z,5.88
2022-09-06T06:56:44.979Z,5.38
2022-09-06T06:59:13.388Z,5.80
2022-09-06T07:01:41.830Z,6.05
2022-09-06T07:04:12.034Z,6.28
2022-09-06T07:12:35.023Z,5.90
2022-09-06T07:15:03.518Z,6.18
2022-09-06T07:17:33.964Z,6.32
2022-09-06T07:20:18.200Z,6.07
2022-09-06T07:22:46.328Z,5.78
2022-09-06T07:25:21.174Z,5.30
2022-09-06T07:27:55.891Z,5.47
2022-09-06T07:30:24.825Z,5.47
2022-09-06T07:32:53.674Z,5.53
2022-09-06T07:35:22.951Z,5.40
2022-09-06T07:37:56.594Z,5.40
2022-09-06T07:40:27.928Z,5.35
2022-09-06T07:45:28.205Z,4.68
2022-09-06T07:47:59.765Z,4.88
2022-09-06T07:50:47.846Z,5.75
2022-09-06T07:53:27.743Z,5.07
2022-09-06T07:56:03.915Z,5.03
2022-09-06T07:58:33.079Z,5.38
2022-09-06T08:01:31.941Z,5.88
2022-09-06T08:04:09.455Z,5.70
2022-09-06T08:09:38.098Z,5.25
2022-09-06T08:12:07.614Z,5.18
2022-09-06T08:14:36.380Z,4.93
2022-09-06T08:17:05.728Z,4.60
2022-09-06T08:19:34.831Z,4.85
2022-09-06T08:22:03.411Z,4.85
2022-09-06T08:24:32.865Z,4.88
2022-09-06T08:27:00.898Z,4.93
2022-09-06T08:29:31.338Z,4.55
2022-09-06T08:31:59.309Z,4.40
2022-09-06T08:34:28.392Z,4.30
2022-09-06T08:36:56.510Z,4.10
2022-09-06T08:39:24.593Z,4.13
2022-09-06T08:42:07.249Z,3.70
2022-09-06T08:47:22.454Z,4.07
2022-09-06T08:50:07.133Z,3.80
2022-09-06T08:53:13.667Z,3.60
2022-09-06T08:56:08.121Z,3.60
2022-09-06T08:58:51.255Z,4.20
2022-09-06T09:01:25.567Z,3.83
2022-09-06T09:03:59.492Z,4.25
2022-09-06T09:06:32.318Z,4.00
2022-09-06T09:09:09.063Z,3.95
2022-09-06T09:11:51.164Z,3.08
2022-09-06T09:14:52.028Z,3.17
2022-09-06T09:17:28.022Z,3.03
2022-09-06T09:19:56.866Z,3.00
2022-09-06T09:22:25.968Z,3.25
2022-09-06T09:24:59.016Z,3.80
2022-09-06T09:27:32.547Z,3.53
2022-09-06T09:32:56.936Z,3.38
2022-09-06T09:35:37.252Z,3.35
2022-09-06T09:38:20.350Z,4.07
2022-09-06T09:40:58.947Z,4.15
2022-09-06T09:43:54.699Z,4.53
2022-09-06T09:46:25.544Z,4.93
2022-09-06T09:49:14.399Z,4.25
2022-09-06T09:52:04.728Z,4.80
2022-09-06T09:54:37.540Z,3.10
2022-09-06T09:57:18.088Z,3.58
2022-09-06T09:59:58.816Z,3.13
2022-09-06T10:05:22.964Z,2.67
2022-09-06T10:07:57.229Z,2.80
2022-09-06T10:10:38.601Z,2.42
2022-09-06T10:13:26.749Z,2.85
2022-09-06T10:15:55.660Z,2.67
2022-09-06T10:18:43.687Z,2.60
2022-09-06T10:21:22.430Z,2.80
2022-09-06T10:26:59.291Z,2.72
2022-09-06T10:29:44.798Z,2.92
2022-09-06T10:32:41.847Z,3.00
2022-09-06T10:35:39.615Z,2.50
2022-09-06T10:38:36.836Z,2.50
2022-09-06T10:41:22.956Z,2.63
2022-09-06T10:44:24.680Z,2.65
2022-09-06T10:47:06.420Z,2.60
2022-09-06T10:52:09.499Z,2.95
2022-09-06T10:54:42.023Z,2.15
2022-09-06T11:00:20.224Z,2.20
2022-09-06T11:06:09.730Z,2.50
2022-09-06T11:09:06.766Z,2.40
2022-09-06T11:11:44.788Z,2.20
2022-09-06T11:14:17.572Z,2.42
2022-09-06T11:17:05.536Z,2.35
2022-09-06T11:19:58.379Z,2.03
2022-09-06T11:23:03.080Z,2.33
2022-09-06T11:26:28.333Z,2.40
2022-09-06T11:29:13.510Z,2.00
2022-09-06T11:34:58.119Z,2.00
2022-09-06T11:37:36.367Z,1.92
2022-09-06T11:40:28.184Z,2.30
2022-09-06T11:42:59.517Z,2.17
2022-09-06T11:45:51.490Z,2.08
2022-09-06T11:48:26.403Z,2.10
2022-09-06T11:50:54.600Z,2.25
2022-09-06T11:53:46.508Z,1.98
2022-09-06T11:56:53.014Z,2.05
2022-09-06T11:59:42.422Z,1.92
2022-09-06T12:02:36.740Z,1.88
2022-09-06T12:05:07.503Z,1.98
2022-09-06T12:07:59.990Z,1.98
2022-09-06T12:10:44.863Z,1.80
2022-09-06T12:13:55.228Z,1.80
2022-09-06T12:18:54.219Z,1.70
2022-09-06T12:21:47.485Z,1.73
2022-09-06T12:24:34.759Z,1.40
2022-09-06T12:27:25.188Z,1.80
2022-09-06T12:30:29.832Z,1.80
2022-09-06T12:32:58.666Z,1.90
2022-09-06T12:38:25.956Z,1.77
2022-09-06T12:40:59.121Z,1.63
2022-09-06T12:43:27.682Z,1.85
2022-09-06T12:45:55.803Z,1.85
2022-09-06T12:48:33.553Z,1.50
2022-09-06T12:51:07.390Z,1.30
2022-09-06T12:53:36.939Z,1.50
2022-09-06T12:56:14.416Z,1.38
2022-09-06T12:58:43.124Z,1.58
2022-09-06T13:01:32.726Z,1.80
2022-09-06T13:04:25.011Z,1.60
2022-09-06T13:06:54.274Z,1.30
2022-09-06T13:09:27.018Z,1.23
2022-09-06T13:12:04.643Z,1.45
2022-09-06T13:14:34.828Z,1.27
2022-09-06T13:17:04.242Z,1.20
2022-09-06T13:19:41.926Z,1.50
2022-09-06T13:22:13.646Z,1.40
2022-09-06T13:24:47.635Z,1.20
2022-09-06T13:27:30.918Z,1.30
2022-09-06T13:30:10.455Z,1.42
2022-09-06T13:32:47.514Z,1.13
2022-09-06T13:35:29.313Z,1.20
2022-09-06T13:38:33.661Z,1.50
2022-09-06T13:41:12.786Z,1.30
2022-09-06T13:43:47.608Z,1.27
2022-09-06T13:46:16.287Z,1.13
2022-09-06T13:48:45.032Z,1.27
2022-09-06T13:51:13.292Z,1.25
2022-09-06T13:53:41.561Z,1.45
2022-09-06T13:56:09.560Z,1.40
2022-09-06T13:58:41.761Z,1.30
2022-09-06T14:01:10.791Z,1.25
2022-09-06T14:03:42.192Z,1.20
2022-09-06T14:06:10.609Z,1.40
2022-09-06T14:09:05.371Z,1.27
2022-09-06T14:11:29.737Z,1.30
2022-09-06T14:14:02.329Z,1.13
2022-09-06T14:16:31.632Z,1.20
2022-09-06T14:18:59.501Z,1.40
2022-09-06T14:21:27.994Z,1.50
2022-09-06T14:23:58.825Z,1.40
2022-09-06T14:26:29.297Z,1.40
2022-09-06T14:28:57.389Z,1.55
2022-09-06T14:31:27.962Z,1.35
2022-09-06T14:33:57.474Z,1.60
2022-09-06T14:36:29.459Z,1.38
2022-09-06T14:38:59.627Z,1.27
2022-09-06T14:41:28.161Z,1.83
2022-09-06T14:43:59.163Z,1.50
2022-09-06T14:46:28.899Z,1.20
2022-09-06T14:49:13.435Z,1.15
2022-09-06T14:51:42.288Z,1.30
2022-09-06T14:54:16.130Z,1.30
2022-09-06T14:56:44.604Z,1.30
2022-09-06T14:59:13.318Z,1.25
2022-09-06T15:01:41.771Z,2.05
2022-09-06T15:04:11.203Z,1.42
2022-09-06T15:06:44.989Z,1.40
2022-09-06T15:09:14.357Z,1.33
2022-09-06T15:11:49.784Z,1.20
2022-09-06T15:14:22.652Z,1.40
2022-09-06T15:16:55.856Z,1.20
2022-09-06T15:19:25.883Z,1.25
2022-09-06T15:21:57.458Z,1.00
2022-09-06T15:24:25.632Z,1.52
2022-09-06T15:26:54.127Z,1.38
2022-09-06T15:29:22.625Z,1.35
2022-09-06T15:31:51.891Z,1.00
2022-09-06T15:34:23.588Z,0.88
2022-09-06T15:36:53.270Z,0.90
2022-09-06T15:39:21.593Z,0.90
2022-09-06T15:41:51.611Z,1.00
2022-09-06T15:44:21.651Z,0.90
2022-09-06T15:46:59.329Z,0.88
2022-09-06T15:49:33.998Z,0.90
2022-09-06T15:52:06.172Z,0.90
2022-09-06T15:54:53.064Z,1.20
2022-09-06T15:57:21.039Z,0.90
2022-09-06T15:59:49.123Z,1.02
2022-09-06T16:02:17.435Z,1.00
2022-09-06T16:04:46.377Z,1.08
2022-09-06T16:07:14.487Z,1.00
2022-09-06T16:09:42.637Z,1.00
2022-09-06T16:12:10.927Z,0.85
2022-09-06T16:14:38.963Z,1.02
2022-09-06T16:17:06.951Z,1.05
2022-09-06T16:19:35.410Z,0.80
2022-09-06T16:22:04.314Z,1.15
2022-09-06T16:24:32.358Z,1.52
2022-09-06T16:27:00.534Z,1.02
2022-09-06T16:29:29.023Z,1.02
2022-09-06T16:31:59.894Z,1.00
2022-09-06T16:34:28.666Z,1.20
2022-09-06T16:36:57.120Z,1.30
2022-09-06T16:39:25.305Z,1.33
2022-09-06T16:41:53.474Z,1.10
2022-09-06T16:44:21.615Z,1.23
2022-09-06T16:46:50.514Z,1.00
2022-09-06T16:49:19.641Z,1.20
2022-09-06T16:51:49.750Z,1.15
2022-09-06T16:54:19.128Z,1.30
2022-09-06T16:56:47.647Z,1.20
2022-09-06T16:59:17.109Z,1.20
2022-09-06T17:01:46.218Z,1.17
2022-09-06T17:04:15.306Z,1.17
2022-09-06T17:06:46.797Z,1.30
2022-09-06T17:09:19.424Z,1.20
2022-09-06T17:11:51.225Z,1.15
2022-09-06T17:14:19.789Z,1.15
2022-09-06T17:17:06.922Z,1.27
2022-09-06T17:19:42.780Z,1.10
2022-09-06T17:22:12.704Z,1.35
2022-09-06T17:24:41.607Z,1.08
2022-09-06T17:27:10.286Z,1.30
2022-09-06T17:29:40.169Z,1.20
2022-09-06T17:32:11.370Z,1.10
2022-09-06T17:34:40.699Z,1.33
2022-09-06T17:37:09.003Z,1.60
2022-09-06T17:39:38.899Z,1.40
2022-09-06T17:42:07.322Z,1.58
2022-09-06T17:44:36.168Z,1.65
2022-09-06T17:47:13.912Z,1.27
2022-09-06T17:49:43.441Z,1.50
2022-09-06T17:59:25.681Z,1.30
2022-09-06T18:01:54.021Z,1.50
2022-09-06T18:04:22.522Z,1.10
2022-09-06T18:06:50.828Z,1.40
2022-09-06T18:09:20.825Z,1.67
2022-09-06T18:11:49.505Z,1.35
2022-09-06T18:14:20.929Z,1.48
2022-09-06T18:16:52.767Z,1.30
2022-09-06T18:19:22.207Z,1.77
2022-09-06T18:21:50.884Z,1.48
2022-09-06T18:24:20.699Z,1.80
2022-09-06T18:27:09.917Z,1.92
2022-09-06T18:29:58.939Z,1.65
2022-09-06T18:32:28.646Z,1.67
2022-09-06T18:34:59.187Z,2.00
2022-09-06T18:37:27.578Z,1.85
2022-09-06T18:39:55.914Z,1.65
2022-09-06T18:42:24.079Z,1.52
2022-09-06T18:44:52.691Z,1.55
2022-09-06T18:47:22.572Z,1.80
2022-09-06T18:49:50.870Z,1.60
2022-09-06T18:52:22.340Z,1.60
2022-09-06T18:54:50.381Z,1.90
2022-09-06T18:57:18.892Z,1.77
2022-09-06T18:59:47.143Z,1.73
2022-09-06T19:02:15.402Z,1.50
2022-09-06T19:04:43.687Z,1.50
2022-09-06T19:07:12.056Z,1.70
2022-09-06T19:09:40.188Z,2.08
2022-09-06T19:12:12.034Z,1.77
2022-09-06T19:14:41.794Z,1.60
2022-09-06T19:17:09.743Z,1.40
2022-09-06T19:19:38.262Z,1.85
2022-09-06T19:22:07.489Z,1.60
2022-09-06T19:24:36.181Z,1.77
2022-09-06T19:27:05.692Z,1.60
2022-09-06T19:29:33.857Z,1.80
2022-09-06T19:32:04.331Z,1.50
2022-09-06T19:34:33.713Z,1.73
2022-09-06T19:37:01.677Z,1.40
2022-09-06T19:39:36.271Z,1.40
2022-09-06T19:42:06.597Z,1.60
2022-09-06T19:44:34.934Z,1.30
2022-09-06T19:47:04.012Z,1.77
2022-09-06T19:49:32.374Z,1.70
2022-09-06T19:52:00.437Z,1.70
2022-09-06T19:54:28.352Z,1.52
2022-09-06T19:56:57.863Z,1.67
2022-09-06T19:59:27.551Z,2.08
2022-09-06T20:01:55.620Z,2.15
2022-09-06T20:04:25.011Z,2.30
2022-09-06T20:06:53.699Z,2.30
2022-09-06T20:09:22.713Z,2.10
2022-09-06T20:11:52.843Z,2.00
2022-09-06T20:14:21.468Z,2.50
2022-09-06T20:16:51.941Z,2.20
2022-09-06T20:19:21.146Z,2.17
2022-09-06T20:21:49.730Z,1.90
2022-09-06T20:24:19.678Z,1.80
2022-09-06T20:26:48.003Z,1.70
2022-09-06T20:29:16.912Z,1.88
2022-09-06T20:31:46.934Z,2.20
2022-09-06T20:34:18.776Z,1.85
2022-09-06T20:36:47.533Z,1.95
2022-09-06T20:39:16.359Z,2.13
2022-09-06T20:41:44.437Z,1.60
2022-09-06T20:44:12.905Z,1.90
2022-09-06T20:46:41.611Z,1.98
2022-09-06T20:49:09.635Z,1.80
2022-09-06T20:51:43.293Z,1.80
2022-09-06T20:54:11.961Z,1.60
2022-09-06T20:56:42.221Z,2.00
2022-09-06T20:59:13.215Z,1.67
2022-09-06T21:01:48.354Z,1.60
2022-09-06T21:04:17.966Z,2.10
2022-09-06T21:06:51.002Z,1.60
2022-09-06T21:09:19.593Z,1.90
2022-09-06T21:11:49.577Z,1.52
2022-09-06T21:14:19.285Z,1.95
2022-09-06T21:16:48.125Z,1.70
2022-09-06T21:19:16.507Z,1.70
2022-09-06T21:21:44.654Z,1.77
2022-09-06T21:24:13.027Z,1.80
2022-09-06T21:26:44.490Z,2.00
2022-09-06T21:29:12.760Z,1.70
2022-09-06T21:31:40.788Z,1.85
2022-09-06T21:34:16.894Z,1.90
2022-09-06T21:36:46.025Z,1.80
2022-09-06T21:39:14.856Z,2.03
2022-09-06T21:41:44.328Z,1.83
2022-09-06T21:44:13.117Z,1.77
2022-09-06T21:46:42.827Z,1.75
2022-09-06T21:49:14.305Z,1.90
2022-09-06T21:51:43.420Z,1.85
2022-09-06T21:54:11.596Z,1.80
2022-09-06T21:56:41.384Z,2.10
2022-09-06T21:59:11.044Z,2.10
2022-09-06T22:01:42.358Z,2.08
2022-09-06T22:04:12.854Z,1.92
2022-09-06T22:06:41.210Z,1.88
2022-09-06T22:09:12.925Z,1.83
2022-09-06T22:11:44.600Z,2.00
2022-09-06T22:14:15.744Z,2.00
2022-09-06T22:16:44.466Z,1.92
2022-09-06T22:19:14.329Z,2.00
2022-09-06T22:21:42.926Z,2.35
2022-09-06T22:24:12.865Z,1.73
2022-09-06T22:26:41.886Z,1.67
2022-09-06T22:29:13.467Z,1.88
2022-09-06T22:31:42.697Z,1.85
2022-09-06T22:34:11.619Z,1.88
2022-09-06T22:36:40.532Z,1.83
2022-09-06T22:39:09.850Z,1.63
2022-09-06T22:41:39.388Z,1.90
2022-09-06T22:44:07.880Z,1.90
2022-09-06T22:46:37.491Z,1.80
2022-09-06T22:49:05.851Z,1.60
2022-09-06T22:51:34.092Z,1.60
2022-09-06T22:54:03.027Z,1.88
2022-09-06T22:56:33.645Z,1.58
2022-09-06T22:59:02.649Z,1.80
2022-09-06T23:01:38.981Z,1.80
2022-09-06T23:04:09.201Z,1.92
2022-09-06T23:06:37.753Z,1.58
2022-09-06T23:09:07.318Z,1.55
2022-09-06T23:11:37.085Z,1.52
2022-09-06T23:14:05.514Z,1.42
2022-09-06T23:16:33.598Z,1.50
2022-09-06T23:19:02.034Z,1.60
2022-09-06T23:21:32.465Z,1.70
2022-09-06T23:24:01.003Z,1.58
2022-09-06T23:26:31.896Z,1.52
2022-09-06T23:29:02.097Z,1.67
2022-09-06T23:31:32.635Z,1.90
2022-09-06T23:34:03.622Z,1.50
2022-09-06T23:36:32.569Z,1.60
2022-09-06T23:39:02.757Z,1.33
2022-09-06T23:41:30.952Z,1.50
2022-09-06T23:44:00.658Z,1.83
2022-09-06T23:46:29.598Z,2.00
2022-09-06T23:48:57.526Z,1.70
2022-09-06T23:51:25.860Z,1.67
2022-09-06T23:53:54.659Z,1.75
2022-09-06T23:56:23.123Z,1.80
2022-09-06T23:58:51.658Z,1.80
